sensor_id;sensor_type;location;lat;lon;timestamp;P1;durP1;ratioP1;P2;durP2;ratioP2
8663;SDS011;4369;47.842;13.096;2023-08-12T00:01:24;3.10;;;2.57;;
8663;SDS011;4369;47.842;13.096;2023-08-12T00:03:53;3.37;;;2.37;;
8663;SDS011;4369;47.842;13.096;2023-08-12T00:06:20;2.80;;;2.50;;
8663;SDS011;4369;47.842;13.096;2023-08-12T00:08:47;4.30;;;3.03;;
8663;SDS011;4369;47.842;13.096;2023-08-12T00:11:14;2.63;;;2.43;;
8663;SDS011;4369;47.842;13.096;2023-08-12T00:13:40;3.27;;;2.97;;
8663;SDS011;4369;47.842;13.096;2023-08-12T00:16:07;4.23;;;3.83;;
8663;SDS011;4369;47.842;13.096;2023-08-12T00:18:34;4.17;;;3.77;;
8663;SDS011;4369;47.842;13.096;2023-08-12T00:21:06;5.30;;;3.20;;
8663;SDS011;4369;47.842;13.096;2023-08-12T00:23:37;6.13;;;3.17;;
8663;SDS011;4369;47.842;13.096;2023-08-12T00:26:05;4.30;;;3.00;;
8663;SDS011;4369;47.842;13.096;2023-08-12T00:28:32;3.40;;;2.90;;
8663;SDS011;4369;47.842;13.096;2023-08-12T00:30:59;3.70;;;3.10;;
8663;SDS011;4369;47.842;13.096;2023-08-12T00:33:26;3.07;;;2.77;;
8663;SDS011;4369;47.842;13.096;2023-08-12T00:35:53;3.17;;;2.93;;
8663;SDS011;4369;47.842;13.096;2023-08-12T00:38:21;3.20;;;2.90;;
8663;SDS011;4369;47.842;13.096;2023-08-12T00:40:48;2.70;;;2.50;;
8663;SDS011;4369;47.842;13.096;2023-08-12T00:43:15;3.30;;;2.60;;
8663;SDS011;4369;47.842;13.096;2023-08-12T00:45:42;3.40;;;2.57;;
8663;SDS011;4369;47.842;13.096;2023-08-12T00:48:10;2.93;;;2.67;;
8663;SDS011;4369;47.842;13.096;2023-08-12T00:50:37;3.30;;;2.77;;
8663;SDS011;4369;47.842;13.096;2023-08-12T00:53:06;3.03;;;2.83;;
8663;SDS011;4369;47.842;13.096;2023-08-12T00:55:35;3.80;;;3.47;;
8663;SDS011;4369;47.842;13.096;2023-08-12T00:58:02;5.23;;;3.43;;
8663;SDS011;4369;47.842;13.096;2023-08-12T01:00:30;3.70;;;3.40;;
8663;SDS011;4369;47.842;13.096;2023-08-12T01:02:58;3.90;;;3.50;;
8663;SDS011;4369;47.842;13.096;2023-08-12T01:05:27;3.40;;;3.10;;
8663;SDS011;4369;47.842;13.096;2023-08-12T01:07:55;3.87;;;3.00;;
8663;SDS011;4369;47.842;13.096;2023-08-12T01:10:23;5.40;;;3.30;;
8663;SDS011;4369;47.842;13.096;2023-08-12T01:12:53;3.13;;;2.83;;
8663;SDS011;4369;47.842;13.096;2023-08-12T01:15:37;3.33;;;2.83;;
8663;SDS011;4369;47.842;13.096;2023-08-12T01:18:05;2.70;;;2.50;;
8663;SDS011;4369;47.842;13.096;2023-08-12T01:20:33;3.33;;;2.80;;
8663;SDS011;4369;47.842;13.096;2023-08-12T01:23:07;3.73;;;2.87;;
8663;SDS011;4369;47.842;13.096;2023-08-12T01:25:36;3.77;;;3.47;;
8663;SDS011;4369;47.842;13.096;2023-08-12T01:28:03;3.60;;;3.30;;
8663;SDS011;4369;47.842;13.096;2023-08-12T01:30:31;2.77;;;2.57;;
8663;SDS011;4369;47.842;13.096;2023-08-12T01:33:01;4.10;;;3.70;;
8663;SDS011;4369;47.842;13.096;2023-08-12T01:35:35;4.10;;;3.27;;
8663;SDS011;4369;47.842;13.096;2023-08-12T01:38:08;3.93;;;3.40;;
8663;SDS011;4369;47.842;13.096;2023-08-12T01:40:36;3.60;;;3.30;;
8663;SDS011;4369;47.842;13.096;2023-08-12T01:43:05;3.63;;;3.33;;
8663;SDS011;4369;47.842;13.096;2023-08-12T01:45:33;3.60;;;3.30;;
8663;SDS011;4369;47.842;13.096;2023-08-12T01:48:00;4.50;;;3.57;;
8663;SDS011;4369;47.842;13.096;2023-08-12T01:50:28;3.53;;;3.23;;
8663;SDS011;4369;47.842;13.096;2023-08-12T01:52:54;3.73;;;3.43;;
8663;SDS011;4369;47.842;13.096;2023-08-12T01:55:22;3.17;;;2.87;;
8663;SDS011;4369;47.842;13.096;2023-08-12T01:57:49;3.37;;;2.80;;
8663;SDS011;4369;47.842;13.096;2023-08-12T02:00:16;2.53;;;2.40;;
8663;SDS011;4369;47.842;13.096;2023-08-12T02:02:43;3.87;;;2.80;;
8663;SDS011;4369;47.842;13.096;2023-08-12T02:05:12;2.70;;;2.50;;
8663;SDS011;4369;47.842;13.096;2023-08-12T02:07:39;3.13;;;2.83;;
8663;SDS011;4369;47.842;13.096;2023-08-12T02:10:06;2.80;;;2.60;;
8663;SDS011;4369;47.842;13.096;2023-08-12T02:12:34;3.57;;;2.80;;
8663;SDS011;4369;47.842;13.096;2023-08-12T02:15:01;3.50;;;3.20;;
8663;SDS011;4369;47.842;13.096;2023-08-12T02:17:28;3.97;;;3.40;;
8663;SDS011;4369;47.842;13.096;2023-08-12T02:19:55;3.70;;;3.40;;
8663;SDS011;4369;47.842;13.096;2023-08-12T02:22:22;5.00;;;3.70;;
8663;SDS011;4369;47.842;13.096;2023-08-12T02:24:49;3.73;;;3.47;;
8663;SDS011;4369;47.842;13.096;2023-08-12T02:27:16;4.07;;;3.67;;
8663;SDS011;4369;47.842;13.096;2023-08-12T02:29:44;4.83;;;3.43;;
8663;SDS011;4369;47.842;13.096;2023-08-12T02:32:11;3.67;;;3.37;;
8663;SDS011;4369;47.842;13.096;2023-08-12T02:34:38;3.47;;;2.70;;
8663;SDS011;4369;47.842;13.096;2023-08-12T02:37:05;2.97;;;2.77;;
8663;SDS011;4369;47.842;13.096;2023-08-12T02:39:32;3.47;;;2.90;;
8663;SDS011;4369;47.842;13.096;2023-08-12T02:41:58;3.33;;;2.73;;
8663;SDS011;4369;47.842;13.096;2023-08-12T02:44:25;3.83;;;2.47;;
8663;SDS011;4369;47.842;13.096;2023-08-12T02:46:53;3.63;;;2.40;;
8663;SDS011;4369;47.842;13.096;2023-08-12T02:49:20;2.30;;;2.20;;
8663;SDS011;4369;47.842;13.096;2023-08-12T02:51:47;2.70;;;2.50;;
8663;SDS011;4369;47.842;13.096;2023-08-12T02:54:14;2.97;;;2.40;;
8663;SDS011;4369;47.842;13.096;2023-08-12T02:56:41;4.10;;;2.80;;
8663;SDS011;4369;47.842;13.096;2023-08-12T02:59:08;4.10;;;3.20;;
8663;SDS011;4369;47.842;13.096;2023-08-12T03:01:34;2.97;;;2.77;;
8663;SDS011;4369;47.842;13.096;2023-08-12T03:04:03;3.40;;;2.70;;
8663;SDS011;4369;47.842;13.096;2023-08-12T03:06:30;2.50;;;2.30;;
8663;SDS011;4369;47.842;13.096;2023-08-12T03:08:57;3.00;;;2.70;;
8663;SDS011;4369;47.842;13.096;2023-08-12T03:11:24;3.37;;;2.43;;
8663;SDS011;4369;47.842;13.096;2023-08-12T03:13:51;5.33;;;2.43;;
8663;SDS011;4369;47.842;13.096;2023-08-12T03:16:17;2.73;;;2.50;;
8663;SDS011;4369;47.842;13.096;2023-08-12T03:18:44;2.80;;;2.50;;
8663;SDS011;4369;47.842;13.096;2023-08-12T03:21:12;4.70;;;2.80;;
8663;SDS011;4369;47.842;13.096;2023-08-12T03:23:40;3.63;;;2.63;;
8663;SDS011;4369;47.842;13.096;2023-08-12T03:26:07;2.67;;;2.47;;
8663;SDS011;4369;47.842;13.096;2023-08-12T03:28:34;2.20;;;2.10;;
8663;SDS011;4369;47.842;13.096;2023-08-12T03:31:01;2.47;;;2.33;;
8663;SDS011;4369;47.842;13.096;2023-08-12T03:33:28;2.50;;;2.30;;
8663;SDS011;4369;47.842;13.096;2023-08-12T03:35:57;2.97;;;2.73;;
8663;SDS011;4369;47.842;13.096;2023-08-12T03:38:25;2.90;;;2.70;;
8663;SDS011;4369;47.842;13.096;2023-08-12T03:40:52;3.23;;;2.37;;
8663;SDS011;4369;47.842;13.096;2023-08-12T03:43:19;3.20;;;2.80;;
8663;SDS011;4369;47.842;13.096;2023-08-12T03:45:45;3.30;;;2.73;;
8663;SDS011;4369;47.842;13.096;2023-08-12T03:48:13;2.60;;;2.40;;
8663;SDS011;4369;47.842;13.096;2023-08-12T03:50:40;2.53;;;2.33;;
8663;SDS011;4369;47.842;13.096;2023-08-12T03:53:07;2.70;;;2.50;;
8663;SDS011;4369;47.842;13.096;2023-08-12T03:55:36;3.33;;;2.63;;
8663;SDS011;4369;47.842;13.096;2023-08-12T03:58:03;4.67;;;2.60;;
8663;SDS011;4369;47.842;13.096;2023-08-12T04:00:30;2.97;;;2.40;;
8663;SDS011;4369;47.842;13.096;2023-08-12T04:02:57;2.63;;;2.20;;
8663;SDS011;4369;47.842;13.096;2023-08-12T04:05:24;2.60;;;2.40;;
8663;SDS011;4369;47.842;13.096;2023-08-12T04:07:51;2.37;;;2.27;;
8663;SDS011;4369;47.842;13.096;2023-08-12T04:10:18;3.20;;;2.90;;
8663;SDS011;4369;47.842;13.096;2023-08-12T04:12:46;2.93;;;2.73;;
8663;SDS011;4369;47.842;13.096;2023-08-12T04:15:13;3.60;;;3.30;;
8663;SDS011;4369;47.842;13.096;2023-08-12T04:17:40;3.67;;;3.37;;
8663;SDS011;4369;47.842;13.096;2023-08-12T04:20:07;3.13;;;2.83;;
8663;SDS011;4369;47.842;13.096;2023-08-12T04:22:34;5.90;;;2.90;;
8663;SDS011;4369;47.842;13.096;2023-08-12T04:25:01;2.80;;;2.60;;
8663;SDS011;4369;47.842;13.096;2023-08-12T04:27:29;2.37;;;2.10;;
8663;SDS011;4369;47.842;13.096;2023-08-12T04:32:24;3.07;;;2.23;;
8663;SDS011;4369;47.842;13.096;2023-08-12T04:34:51;3.40;;;2.57;;
8663;SDS011;4369;47.842;13.096;2023-08-12T04:37:18;2.47;;;2.20;;
8663;SDS011;4369;47.842;13.096;2023-08-12T04:39:44;3.37;;;2.30;;
8663;SDS011;4369;47.842;13.096;2023-08-12T04:42:12;2.37;;;2.17;;
8663;SDS011;4369;47.842;13.096;2023-08-12T04:44:39;3.87;;;2.30;;
8663;SDS011;4369;47.842;13.096;2023-08-12T04:47:06;2.37;;;2.17;;
8663;SDS011;4369;47.842;13.096;2023-08-12T04:49:34;2.43;;;2.13;;
8663;SDS011;4369;47.842;13.096;2023-08-12T04:52:04;2.90;;;2.27;;
8663;SDS011;4369;47.842;13.096;2023-08-12T04:54:31;2.47;;;2.27;;
8663;SDS011;4369;47.842;13.096;2023-08-12T04:56:58;2.50;;;2.40;;
8663;SDS011;4369;47.842;13.096;2023-08-12T04:59:25;2.40;;;2.20;;
8663;SDS011;4369;47.842;13.096;2023-08-12T05:01:52;2.33;;;2.20;;
8663;SDS011;4369;47.842;13.096;2023-08-12T05:04:19;2.80;;;2.23;;
8663;SDS011;4369;47.842;13.096;2023-08-12T05:06:47;2.53;;;2.23;;
8663;SDS011;4369;47.842;13.096;2023-08-12T05:09:14;2.70;;;2.50;;
8663;SDS011;4369;47.842;13.096;2023-08-12T05:11:41;2.50;;;2.30;;
8663;SDS011;4369;47.842;13.096;2023-08-12T05:14:07;3.10;;;2.47;;
8663;SDS011;4369;47.842;13.096;2023-08-12T05:16:34;2.50;;;2.40;;
8663;SDS011;4369;47.842;13.096;2023-08-12T05:19:01;2.70;;;2.40;;
8663;SDS011;4369;47.842;13.096;2023-08-12T05:21:28;2.73;;;2.10;;
8663;SDS011;4369;47.842;13.096;2023-08-12T05:23:56;4.03;;;2.43;;
8663;SDS011;4369;47.842;13.096;2023-08-12T05:26:23;2.23;;;2.10;;
8663;SDS011;4369;47.842;13.096;2023-08-12T05:28:50;2.37;;;2.10;;
8663;SDS011;4369;47.842;13.096;2023-08-12T05:31:17;2.83;;;2.30;;
8663;SDS011;4369;47.842;13.096;2023-08-12T05:33:44;2.27;;;2.00;;
8663;SDS011;4369;47.842;13.096;2023-08-12T05:36:10;2.63;;;2.40;;
8663;SDS011;4369;47.842;13.096;2023-08-12T05:38:37;2.47;;;2.20;;
8663;SDS011;4369;47.842;13.096;2023-08-12T05:41:05;2.57;;;2.37;;
8663;SDS011;4369;47.842;13.096;2023-08-12T05:43:33;2.60;;;2.40;;
8663;SDS011;4369;47.842;13.096;2023-08-12T05:46:00;2.50;;;2.30;;
8663;SDS011;4369;47.842;13.096;2023-08-12T05:48:28;2.40;;;2.20;;
8663;SDS011;4369;47.842;13.096;2023-08-12T05:50:55;2.83;;;2.30;;
8663;SDS011;4369;47.842;13.096;2023-08-12T05:53:22;2.93;;;2.60;;
8663;SDS011;4369;47.842;13.096;2023-08-12T05:55:49;2.73;;;2.40;;
8663;SDS011;4369;47.842;13.096;2023-08-12T05:58:17;2.23;;;2.07;;
8663;SDS011;4369;47.842;13.096;2023-08-12T06:00:45;2.33;;;2.13;;
8663;SDS011;4369;47.842;13.096;2023-08-12T06:03:12;2.70;;;1.90;;
8663;SDS011;4369;47.842;13.096;2023-08-12T06:05:39;2.20;;;2.00;;
8663;SDS011;4369;47.842;13.096;2023-08-12T06:08:07;2.17;;;2.00;;
8663;SDS011;4369;47.842;13.096;2023-08-12T06:10:33;2.30;;;2.20;;
8663;SDS011;4369;47.842;13.096;2023-08-12T06:13:00;3.50;;;3.20;;
8663;SDS011;4369;47.842;13.096;2023-08-12T06:15:29;2.90;;;2.70;;
8663;SDS011;4369;47.842;13.096;2023-08-12T06:17:56;3.23;;;2.93;;
8663;SDS011;4369;47.842;13.096;2023-08-12T06:20:23;3.50;;;3.20;;
8663;SDS011;4369;47.842;13.096;2023-08-12T06:22:50;4.03;;;2.80;;
8663;SDS011;4369;47.842;13.096;2023-08-12T06:25:17;2.97;;;2.77;;
8663;SDS011;4369;47.842;13.096;2023-08-12T06:27:44;2.43;;;2.30;;
8663;SDS011;4369;47.842;13.096;2023-08-12T06:30:12;2.73;;;2.53;;
8663;SDS011;4369;47.842;13.096;2023-08-12T06:32:40;2.77;;;2.57;;
8663;SDS011;4369;47.842;13.096;2023-08-12T06:35:08;2.70;;;2.50;;
8663;SDS011;4369;47.842;13.096;2023-08-12T06:37:35;2.83;;;2.23;;
8663;SDS011;4369;47.842;13.096;2023-08-12T06:40:02;2.60;;;2.40;;
8663;SDS011;4369;47.842;13.096;2023-08-12T06:42:30;2.13;;;2.03;;
8663;SDS011;4369;47.842;13.096;2023-08-12T06:44:57;2.33;;;2.23;;
8663;SDS011;4369;47.842;13.096;2023-08-12T06:47:25;2.50;;;2.30;;
8663;SDS011;4369;47.842;13.096;2023-08-12T06:49:56;2.60;;;2.40;;
8663;SDS011;4369;47.842;13.096;2023-08-12T06:52:22;2.33;;;2.13;;
8663;SDS011;4369;47.842;13.096;2023-08-12T06:54:49;2.20;;;2.10;;
8663;SDS011;4369;47.842;13.096;2023-08-12T06:57:17;2.60;;;2.40;;
8663;SDS011;4369;47.842;13.096;2023-08-12T06:59:44;2.10;;;2.00;;
8663;SDS011;4369;47.842;13.096;2023-08-12T07:02:11;2.10;;;2.00;;
8663;SDS011;4369;47.842;13.096;2023-08-12T07:04:38;2.77;;;2.50;;
8663;SDS011;4369;47.842;13.096;2023-08-12T07:07:06;2.40;;;2.20;;
8663;SDS011;4369;47.842;13.096;2023-08-12T07:09:33;3.37;;;2.30;;
8663;SDS011;4369;47.842;13.096;2023-08-12T07:12:00;2.60;;;2.40;;
8663;SDS011;4369;47.842;13.096;2023-08-12T07:14:28;2.60;;;2.30;;
8663;SDS011;4369;47.842;13.096;2023-08-12T07:16:55;3.13;;;2.40;;
8663;SDS011;4369;47.842;13.096;2023-08-12T07:19:22;3.23;;;2.20;;
8663;SDS011;4369;47.842;13.096;2023-08-12T07:21:49;2.13;;;2.03;;
8663;SDS011;4369;47.842;13.096;2023-08-12T07:24:17;2.50;;;2.30;;
8663;SDS011;4369;47.842;13.096;2023-08-12T07:26:44;2.07;;;1.90;;
8663;SDS011;4369;47.842;13.096;2023-08-12T07:29:11;2.70;;;2.50;;
8663;SDS011;4369;47.842;13.096;2023-08-12T07:31:38;2.57;;;2.37;;
8663;SDS011;4369;47.842;13.096;2023-08-12T07:34:04;3.00;;;2.10;;
8663;SDS011;4369;47.842;13.096;2023-08-12T07:36:31;2.20;;;2.10;;
8663;SDS011;4369;47.842;13.096;2023-08-12T07:38:59;2.20;;;2.03;;
8663;SDS011;4369;47.842;13.096;2023-08-12T07:41:27;2.20;;;2.10;;
8663;SDS011;4369;47.842;13.096;2023-08-12T07:43:54;2.30;;;2.00;;
8663;SDS011;4369;47.842;13.096;2023-08-12T07:46:21;1.90;;;1.80;;
8663;SDS011;4369;47.842;13.096;2023-08-12T07:48:47;2.80;;;2.50;;
8663;SDS011;4369;47.842;13.096;2023-08-12T07:51:15;2.50;;;2.30;;
8663;SDS011;4369;47.842;13.096;2023-08-12T07:53:41;2.30;;;2.10;;
8663;SDS011;4369;47.842;13.096;2023-08-12T07:56:08;2.20;;;2.10;;
8663;SDS011;4369;47.842;13.096;2023-08-12T07:58:37;2.23;;;2.10;;
8663;SDS011;4369;47.842;13.096;2023-08-12T08:01:04;2.60;;;2.40;;
8663;SDS011;4369;47.842;13.096;2023-08-12T08:03:33;2.23;;;2.10;;
8663;SDS011;4369;47.842;13.096;2023-08-12T08:06:00;2.07;;;1.90;;
8663;SDS011;4369;47.842;13.096;2023-08-12T08:08:26;2.47;;;2.27;;
8663;SDS011;4369;47.842;13.096;2023-08-12T08:10:53;2.50;;;2.30;;
8663;SDS011;4369;47.842;13.096;2023-08-12T08:13:20;2.20;;;2.10;;
8663;SDS011;4369;47.842;13.096;2023-08-12T08:15:48;2.30;;;2.10;;
8663;SDS011;4369;47.842;13.096;2023-08-12T08:18:15;2.10;;;2.00;;
8663;SDS011;4369;47.842;13.096;2023-08-12T08:20:42;2.53;;;2.23;;
8663;SDS011;4369;47.842;13.096;2023-08-12T08:23:09;3.30;;;2.50;;
8663;SDS011;4369;47.842;13.096;2023-08-12T08:25:36;2.00;;;1.90;;
8663;SDS011;4369;47.842;13.096;2023-08-12T08:28:03;3.27;;;2.47;;
8663;SDS011;4369;47.842;13.096;2023-08-12T08:30:30;3.87;;;2.47;;
8663;SDS011;4369;47.842;13.096;2023-08-12T08:32:58;2.70;;;2.30;;
8663;SDS011;4369;47.842;13.096;2023-08-12T08:35:25;2.50;;;2.30;;
8663;SDS011;4369;47.842;13.096;2023-08-12T08:37:52;2.70;;;2.50;;
8663;SDS011;4369;47.842;13.096;2023-08-12T08:40:19;3.47;;;2.50;;
8663;SDS011;4369;47.842;13.096;2023-08-12T08:42:46;2.47;;;2.27;;
8663;SDS011;4369;47.842;13.096;2023-08-12T08:45:18;2.20;;;2.10;;
8663;SDS011;4369;47.842;13.096;2023-08-12T08:47:48;2.57;;;2.03;;
8663;SDS011;4369;47.842;13.096;2023-08-12T08:50:18;2.37;;;2.17;;
8663;SDS011;4369;47.842;13.096;2023-08-12T08:52:46;2.20;;;2.10;;
8663;SDS011;4369;47.842;13.096;2023-08-12T08:55:14;2.30;;;2.20;;
8663;SDS011;4369;47.842;13.096;2023-08-12T08:57:42;3.43;;;2.60;;
8663;SDS011;4369;47.842;13.096;2023-08-12T09:00:10;2.63;;;2.43;;
8663;SDS011;4369;47.842;13.096;2023-08-12T09:02:39;2.43;;;2.23;;
8663;SDS011;4369;47.842;13.096;2023-08-12T09:05:07;2.40;;;2.20;;
8663;SDS011;4369;47.842;13.096;2023-08-12T09:07:36;2.90;;;2.70;;
8663;SDS011;4369;47.842;13.096;2023-08-12T09:10:04;2.50;;;2.30;;
8663;SDS011;4369;47.842;13.096;2023-08-12T09:12:32;2.30;;;2.20;;
8663;SDS011;4369;47.842;13.096;2023-08-12T09:14:59;2.47;;;2.23;;
8663;SDS011;4369;47.842;13.096;2023-08-12T09:17:26;2.97;;;2.60;;
8663;SDS011;4369;47.842;13.096;2023-08-12T09:19:53;2.43;;;2.30;;
8663;SDS011;4369;47.842;13.096;2023-08-12T09:22:20;2.80;;;2.60;;
8663;SDS011;4369;47.842;13.096;2023-08-12T09:24:52;2.72;;;2.38;;
8663;SDS011;4369;47.842;13.096;2023-08-12T09:27:22;2.63;;;2.42;;
8663;SDS011;4369;47.842;13.096;2023-08-12T09:29:49;2.67;;;2.47;;
8663;SDS011;4369;47.842;13.096;2023-08-12T09:32:21;2.70;;;2.50;;
8663;SDS011;4369;47.842;13.096;2023-08-12T09:34:49;2.90;;;2.70;;
8663;SDS011;4369;47.842;13.096;2023-08-12T09:37:17;2.35;;;2.25;;
8663;SDS011;4369;47.842;13.096;2023-08-12T09:39:44;2.65;;;2.45;;
8663;SDS011;4369;47.842;13.096;2023-08-12T09:42:14;2.70;;;2.50;;
8663;SDS011;4369;47.842;13.096;2023-08-12T09:44:42;3.85;;;2.60;;
8663;SDS011;4369;47.842;13.096;2023-08-12T09:47:09;2.60;;;2.40;;
8663;SDS011;4369;47.842;13.096;2023-08-12T09:49:37;3.03;;;2.80;;
8663;SDS011;4369;47.842;13.096;2023-08-12T09:52:05;2.35;;;2.25;;
8663;SDS011;4369;47.842;13.096;2023-08-12T09:54:33;3.05;;;2.85;;
8663;SDS011;4369;47.842;13.096;2023-08-12T09:57:01;3.13;;;2.38;;
8663;SDS011;4369;47.842;13.096;2023-08-12T09:59:31;2.70;;;2.50;;
8663;SDS011;4369;47.842;13.096;2023-08-12T10:01:59;2.83;;;2.50;;
8663;SDS011;4369;47.842;13.096;2023-08-12T10:04:29;2.80;;;2.45;;
8663;SDS011;4369;47.842;13.096;2023-08-12T10:07:01;2.65;;;2.47;;
8663;SDS011;4369;47.842;13.096;2023-08-12T10:09:29;2.60;;;2.40;;
8663;SDS011;4369;47.842;13.096;2023-08-12T10:11:57;2.30;;;2.20;;
8663;SDS011;4369;47.842;13.096;2023-08-12T10:14:24;3.15;;;2.45;;
8663;SDS011;4369;47.842;13.096;2023-08-12T10:16:53;2.80;;;2.60;;
8663;SDS011;4369;47.842;13.096;2023-08-12T10:19:21;2.88;;;2.67;;
8663;SDS011;4369;47.842;13.096;2023-08-12T10:21:50;2.40;;;2.20;;
8663;SDS011;4369;47.842;13.096;2023-08-12T10:24:20;2.83;;;2.58;;
8663;SDS011;4369;47.842;13.096;2023-08-12T10:26:47;3.25;;;2.30;;
8663;SDS011;4369;47.842;13.096;2023-08-12T10:29:17;2.85;;;2.53;;
8663;SDS011;4369;47.842;13.096;2023-08-12T10:31:43;2.10;;;2.00;;
8663;SDS011;4369;47.842;13.096;2023-08-12T10:34:18;2.60;;;2.40;;
8663;SDS011;4369;47.842;13.096;2023-08-12T10:36:46;2.33;;;2.22;;
8663;SDS011;4369;47.842;13.096;2023-08-12T10:39:13;4.07;;;2.25;;
8663;SDS011;4369;47.842;13.096;2023-08-12T10:41:46;3.20;;;2.22;;
8663;SDS011;4369;47.842;13.096;2023-08-12T10:44:16;2.38;;;2.20;;
8663;SDS011;4369;47.842;13.096;2023-08-12T10:46:49;6.03;;;2.72;;
8663;SDS011;4369;47.842;13.096;2023-08-12T10:49:19;2.60;;;2.40;;
8663;SDS011;4369;47.842;13.096;2023-08-12T10:51:48;2.50;;;2.40;;
8663;SDS011;4369;47.842;13.096;2023-08-12T10:54:16;2.75;;;2.20;;
8663;SDS011;4369;47.842;13.096;2023-08-12T10:57:05;2.25;;;2.03;;
8663;SDS011;4369;47.842;13.096;2023-08-12T10:59:48;2.42;;;2.22;;
8663;SDS011;4369;47.842;13.096;2023-08-12T11:02:19;2.22;;;2.13;;
8663;SDS011;4369;47.842;13.096;2023-08-12T11:04:51;2.13;;;2.03;;
8663;SDS011;4369;47.842;13.096;2023-08-12T11:07:19;2.15;;;2.05;;
8663;SDS011;4369;47.842;13.096;2023-08-12T11:09:51;2.33;;;2.13;;
8663;SDS011;4369;47.842;13.096;2023-08-12T11:12:23;2.00;;;1.90;;
8663;SDS011;4369;47.842;13.096;2023-08-12T11:14:57;4.57;;;2.38;;
8663;SDS011;4369;47.842;13.096;2023-08-12T11:17:32;3.92;;;2.30;;
8663;SDS011;4369;47.842;13.096;2023-08-12T11:20:02;2.13;;;2.00;;
8663;SDS011;4369;47.842;13.096;2023-08-12T11:22:32;2.33;;;2.22;;
8663;SDS011;4369;47.842;13.096;2023-08-12T11:25:01;2.40;;;2.20;;
8663;SDS011;4369;47.842;13.096;2023-08-12T11:27:34;2.35;;;2.25;;
8663;SDS011;4369;47.842;13.096;2023-08-12T11:30:03;2.20;;;2.10;;
8663;SDS011;4369;47.842;13.096;2023-08-12T11:32:31;2.30;;;2.20;;
8663;SDS011;4369;47.842;13.096;2023-08-12T11:34:58;2.28;;;2.17;;
8663;SDS011;4369;47.842;13.096;2023-08-12T11:37:27;2.58;;;2.38;;
8663;SDS011;4369;47.842;13.096;2023-08-12T11:39:54;2.55;;;2.33;;
8663;SDS011;4369;47.842;13.096;2023-08-12T11:42:21;3.42;;;2.30;;
8663;SDS011;4369;47.842;13.096;2023-08-12T11:44:48;2.47;;;2.35;;
8663;SDS011;4369;47.842;13.096;2023-08-12T11:47:15;2.55;;;2.20;;
8663;SDS011;4369;47.842;13.096;2023-08-12T11:49:41;2.03;;;1.92;;
8663;SDS011;4369;47.842;13.096;2023-08-12T11:52:08;1.85;;;1.75;;
8663;SDS011;4369;47.842;13.096;2023-08-12T11:54:37;1.77;;;1.67;;
8663;SDS011;4369;47.842;13.096;2023-08-12T11:57:04;2.00;;;1.90;;
8663;SDS011;4369;47.842;13.096;2023-08-12T11:59:32;1.90;;;1.80;;
8663;SDS011;4369;47.842;13.096;2023-08-12T12:02:01;2.08;;;1.98;;
8663;SDS011;4369;47.842;13.096;2023-08-12T12:04:30;1.83;;;1.70;;
8663;SDS011;4369;47.842;13.096;2023-08-12T12:06:57;1.98;;;1.88;;
8663;SDS011;4369;47.842;13.096;2023-08-12T12:09:25;2.13;;;1.90;;
8663;SDS011;4369;47.842;13.096;2023-08-12T12:11:53;1.70;;;1.60;;
8663;SDS011;4369;47.842;13.096;2023-08-12T12:14:20;2.05;;;1.90;;
8663;SDS011;4369;47.842;13.096;2023-08-12T12:16:48;2.22;;;2.03;;
8663;SDS011;4369;47.842;13.096;2023-08-12T12:19:16;2.00;;;1.77;;
8663;SDS011;4369;47.842;13.096;2023-08-12T12:21:45;3.75;;;3.35;;
8663;SDS011;4369;47.842;13.096;2023-08-12T12:24:13;2.28;;;2.00;;
8663;SDS011;4369;47.842;13.096;2023-08-12T12:26:40;1.85;;;1.75;;
8663;SDS011;4369;47.842;13.096;2023-08-12T12:29:09;2.20;;;1.90;;
8663;SDS011;4369;47.842;13.096;2023-08-12T12:31:37;2.08;;;1.98;;
8663;SDS011;4369;47.842;13.096;2023-08-12T12:34:04;2.03;;;1.92;;
8663;SDS011;4369;47.842;13.096;2023-08-12T12:36:32;2.30;;;1.55;;
8663;SDS011;4369;47.842;13.096;2023-08-12T12:39:01;2.08;;;1.88;;
8663;SDS011;4369;47.842;13.096;2023-08-12T12:41:28;2.88;;;2.00;;
8663;SDS011;4369;47.842;13.096;2023-08-12T12:43:55;2.30;;;2.00;;
8663;SDS011;4369;47.842;13.096;2023-08-12T12:46:24;2.15;;;2.00;;
8663;SDS011;4369;47.842;13.096;2023-08-12T12:48:50;2.00;;;1.90;;
8663;SDS011;4369;47.842;13.096;2023-08-12T12:51:17;2.60;;;2.40;;
8663;SDS011;4369;47.842;13.096;2023-08-12T12:53:44;2.15;;;2.05;;
8663;SDS011;4369;47.842;13.096;2023-08-12T12:56:11;2.60;;;1.80;;
8663;SDS011;4369;47.842;13.096;2023-08-12T12:58:38;2.58;;;2.38;;
8663;SDS011;4369;47.842;13.096;2023-08-12T13:01:05;2.55;;;2.35;;
8663;SDS011;4369;47.842;13.096;2023-08-12T13:03:33;2.58;;;2.33;;
8663;SDS011;4369;47.842;13.096;2023-08-12T13:06:00;2.30;;;2.20;;
8663;SDS011;4369;47.842;13.096;2023-08-12T13:08:28;3.65;;;2.20;;
8663;SDS011;4369;47.842;13.096;2023-08-12T13:10:56;2.78;;;2.53;;
8663;SDS011;4369;47.842;13.096;2023-08-12T13:13:23;2.38;;;2.22;;
8663;SDS011;4369;47.842;13.096;2023-08-12T13:15:50;2.60;;;2.40;;
8663;SDS011;4369;47.842;13.096;2023-08-12T13:18:17;2.60;;;2.40;;
8663;SDS011;4369;47.842;13.096;2023-08-12T13:20:47;3.63;;;2.40;;
8663;SDS011;4369;47.842;13.096;2023-08-12T13:23:14;2.20;;;2.10;;
8663;SDS011;4369;47.842;13.096;2023-08-12T13:25:41;2.55;;;2.45;;
8663;SDS011;4369;47.842;13.096;2023-08-12T13:28:08;2.53;;;2.33;;
8663;SDS011;4369;47.842;13.096;2023-08-12T13:30:35;2.55;;;2.45;;
8663;SDS011;4369;47.842;13.096;2023-08-12T13:33:02;2.35;;;2.20;;
8663;SDS011;4369;47.842;13.096;2023-08-12T13:35:30;2.72;;;2.08;;
8663;SDS011;4369;47.842;13.096;2023-08-12T13:37:58;2.45;;;2.30;;
8663;SDS011;4369;47.842;13.096;2023-08-12T13:40:31;2.80;;;2.70;;
8663;SDS011;4369;47.842;13.096;2023-08-12T13:42:58;2.65;;;2.55;;
8663;SDS011;4369;47.842;13.096;2023-08-12T13:45:25;2.20;;;2.10;;
8663;SDS011;4369;47.842;13.096;2023-08-12T13:47:52;2.97;;;2.25;;
8663;SDS011;4369;47.842;13.096;2023-08-12T13:50:19;2.67;;;2.47;;
8663;SDS011;4369;47.842;13.096;2023-08-12T13:52:46;2.33;;;2.22;;
8663;SDS011;4369;47.842;13.096;2023-08-12T13:55:15;2.33;;;2.22;;
8663;SDS011;4369;47.842;13.096;2023-08-12T13:57:42;2.65;;;2.45;;
8663;SDS011;4369;47.842;13.096;2023-08-12T14:00:09;2.80;;;2.60;;
8663;SDS011;4369;47.842;13.096;2023-08-12T14:02:39;2.72;;;2.50;;
8663;SDS011;4369;47.842;13.096;2023-08-12T14:05:06;2.60;;;2.50;;
8663;SDS011;4369;47.842;13.096;2023-08-12T14:07:35;2.63;;;2.47;;
8663;SDS011;4369;47.842;13.096;2023-08-12T14:10:02;2.53;;;2.42;;
8663;SDS011;4369;47.842;13.096;2023-08-12T14:12:31;2.50;;;2.35;;
8663;SDS011;4369;47.842;13.096;2023-08-12T14:14:58;2.92;;;2.72;;
8663;SDS011;4369;47.842;13.096;2023-08-12T14:17:25;2.80;;;2.70;;
8663;SDS011;4369;47.842;13.096;2023-08-12T14:19:52;3.10;;;2.80;;
8663;SDS011;4369;47.842;13.096;2023-08-12T14:22:19;2.60;;;2.50;;
8663;SDS011;4369;47.842;13.096;2023-08-12T14:24:46;2.90;;;2.70;;
8663;SDS011;4369;47.842;13.096;2023-08-12T14:27:15;3.13;;;2.90;;
8663;SDS011;4369;47.842;13.096;2023-08-12T14:29:44;3.10;;;3.00;;
8663;SDS011;4369;47.842;13.096;2023-08-12T14:32:11;2.78;;;2.67;;
8663;SDS011;4369;47.842;13.096;2023-08-12T14:34:41;2.88;;;2.75;;
8663;SDS011;4369;47.842;13.096;2023-08-12T14:37:10;3.30;;;3.10;;
8663;SDS011;4369;47.842;13.096;2023-08-12T14:39:37;3.53;;;3.30;;
8663;SDS011;4369;47.842;13.096;2023-08-12T14:42:04;3.28;;;3.08;;
8663;SDS011;4369;47.842;13.096;2023-08-12T14:44:33;3.15;;;3.05;;
8663;SDS011;4369;47.842;13.096;2023-08-12T14:47:01;3.30;;;3.00;;
8663;SDS011;4369;47.842;13.096;2023-08-12T14:49:29;3.08;;;2.88;;
8663;SDS011;4369;47.842;13.096;2023-08-12T14:51:55;3.15;;;3.00;;
8663;SDS011;4369;47.842;13.096;2023-08-12T14:54:22;3.13;;;3.00;;
8663;SDS011;4369;47.842;13.096;2023-08-12T14:56:49;3.10;;;2.90;;
8663;SDS011;4369;47.842;13.096;2023-08-12T14:59:16;2.95;;;2.75;;
8663;SDS011;4369;47.842;13.096;2023-08-12T15:01:45;3.15;;;2.97;;
8663;SDS011;4369;47.842;13.096;2023-08-12T15:04:13;3.10;;;2.90;;
8663;SDS011;4369;47.842;13.096;2023-08-12T15:06:41;2.78;;;2.60;;